sensor_id;sensor_type;location;lat;lon;timestamp;pressure;altitude;pressure_sealevel;temperature;humidity
55301;BME280;58302;51.446;-2.000;2022-12-18T00:00:58;101185.16;;;-1.30;100.00
55301;BME280;58302;51.446;-2.000;2022-12-18T00:03:24;101186.63;;;-1.28;100.00
55301;BME280;58302;51.446;-2.000;2022-12-18T00:05:51;101184.97;;;-1.29;100.00
55301;BME280;58302;51.446;-2.000;2022-12-18T00:08:19;101169.63;;;-1.27;100.00
55301;BME280;58302;51.446;-2.000;2022-12-18T00:10:45;101160.28;;;-1.15;100.00
55301;BME280;58302;51.446;-2.000;2022-12-18T00:13:12;101169.22;;;-0.99;100.00
55301;BME280;58302;51.446;-2.000;2022-12-18T00:15:39;101172.44;;;-1.04;100.00
55301;BME280;58302;51.446;-2.000;2022-12-18T00:18:05;101168.06;;;-1.05;100.00
55301;BME280;58302;51.446;-2.000;2022-12-18T00:20:35;101160.91;;;-1.04;100.00
55301;BME280;58302;51.446;-2.000;2022-12-18T00:23:01;101153.13;;;-1.22;100.00
55301;BME280;58302;51.446;-2.000;2022-12-18T00:25:27;101150.13;;;-1.27;100.00
55301;BME280;58302;51.446;-2.000;2022-12-18T00:27:53;101146.31;;;-1.33;100.00
55301;BME280;58302;51.446;-2.000;2022-12-18T00:30:19;101146.03;;;-1.46;100.00
55301;BME280;58302;51.446;-2.000;2022-12-18T00:32:45;101145.16;;;-1.30;100.00
55301;BME280;58302;51.446;-2.000;2022-12-18T00:35:11;101146.47;;;-1.26;100.00
55301;BME280;58302;51.446;-2.000;2022-12-18T00:37:37;101145.63;;;-1.19;100.00
55301;BME280;58302;51.446;-2.000;2022-12-18T00:40:03;101143.41;;;-1.07;100.00
55301;BME280;58302;51.446;-2.000;2022-12-18T00:42:29;101148.25;;;-1.02;100.00
55301;BME280;58302;51.446;-2.000;2022-12-18T00:45:14;101152.69;;;-0.87;100.00
55301;BME280;58302;51.446;-2.000;2022-12-18T00:47:40;101140.50;;;-0.89;100.00
55301;BME280;58302;51.446;-2.000;2022-12-18T00:50:06;101130.72;;;-0.97;100.00
55301;BME280;58302;51.446;-2.000;2022-12-18T00:52:32;101127.03;;;-0.96;100.00
55301;BME280;58302;51.446;-2.000;2022-12-18T00:54:58;101119.22;;;-0.97;100.00
55301;BME280;58302;51.446;-2.000;2022-12-18T00:57:24;101119.66;;;-0.94;100.00
55301;BME280;58302;51.446;-2.000;2022-12-18T00:59:50;101119.66;;;-0.86;100.00
55301;BME280;58302;51.446;-2.000;2022-12-18T01:02:16;101114.13;;;-0.84;100.00
55301;BME280;58302;51.446;-2.000;2022-12-18T01:04:42;101107.66;;;-0.90;100.00
55301;BME280;58302;51.446;-2.000;2022-12-18T01:07:08;101113.56;;;-1.02;100.00
55301;BME280;58302;51.446;-2.000;2022-12-18T01:09:34;101118.09;;;-1.11;100.00
55301;BME280;58302;51.446;-2.000;2022-12-18T01:12:00;101117.25;;;-1.12;100.00
55301;BME280;58302;51.446;-2.000;2022-12-18T01:14:26;101115.63;;;-1.21;100.00
55301;BME280;58302;51.446;-2.000;2022-12-18T01:16:52;101114.47;;;-1.26;100.00
55301;BME280;58302;51.446;-2.000;2022-12-18T01:19:18;101115.00;;;-1.39;100.00
55301;BME280;58302;51.446;-2.000;2022-12-18T01:21:44;101115.88;;;-1.55;100.00
55301;BME280;58302;51.446;-2.000;2022-12-18T01:24:11;101117.75;;;-1.64;100.00
55301;BME280;58302;51.446;-2.000;2022-12-18T01:26:37;101116.72;;;-1.63;100.00
55301;BME280;58302;51.446;-2.000;2022-12-18T01:29:03;101111.41;;;-1.63;100.00
55301;BME280;58302;51.446;-2.000;2022-12-18T01:31:31;101113.56;;;-1.66;100.00
55301;BME280;58302;51.446;-2.000;2022-12-18T01:34:00;101109.91;;;-1.57;100.00
55301;BME280;58302;51.446;-2.000;2022-12-18T01:36:29;101115.19;;;-1.49;100.00
55301;BME280;58302;51.446;-2.000;2022-12-18T01:38:56;101117.25;;;-1.59;100.00
55301;BME280;58302;51.446;-2.000;2022-12-18T01:41:28;101112.19;;;-1.54;100.00
55301;BME280;58302;51.446;-2.000;2022-12-18T01:49:52;101122.22;;;-1.48;100.00
55301;BME280;58302;51.446;-2.000;2022-12-18T01:52:19;101124.84;;;-1.40;100.00
55301;BME280;58302;51.446;-2.000;2022-12-18T01:54:47;101114.50;;;-1.35;100.00
55301;BME280;58302;51.446;-2.000;2022-12-18T01:57:14;101121.84;;;-1.45;100.00
55301;BME280;58302;51.446;-2.000;2022-12-18T01:59:42;101118.06;;;-1.58;100.00
55301;BME280;58302;51.446;-2.000;2022-12-18T02:02:08;101122.56;;;-1.67;100.00
55301;BME280;58302;51.446;-2.000;2022-12-18T02:04:34;101118.03;;;-1.50;100.00
55301;BME280;58302;51.446;-2.000;2022-12-18T02:09:46;101125.53;;;-1.54;100.00
55301;BME280;58302;51.446;-2.000;2022-12-18T02:12:20;101125.22;;;-1.59;100.00
55301;BME280;58302;51.446;-2.000;2022-12-18T02:15:27;101127.03;;;-1.51;100.00
55301;BME280;58302;51.446;-2.000;2022-12-18T02:17:55;101124.00;;;-1.40;100.00
55301;BME280;58302;51.446;-2.000;2022-12-18T02:20:29;101129.44;;;-1.17;100.00
55301;BME280;58302;51.446;-2.000;2022-12-18T02:28:19;101100.94;;;-1.17;100.00
55301;BME280;58302;51.446;-2.000;2022-12-18T02:30:49;101103.97;;;-1.20;100.00
55301;BME280;58302;51.446;-2.000;2022-12-18T02:33:17;101097.81;;;-1.28;100.00
55301;BME280;58302;51.446;-2.000;2022-12-18T02:35:48;101103.50;;;-1.31;100.00
55301;BME280;58302;51.446;-2.000;2022-12-18T02:38:15;101090.00;;;-1.30;100.00
55301;BME280;58302;51.446;-2.000;2022-12-18T02:40:42;101098.66;;;-1.28;100.00
55301;BME280;58302;51.446;-2.000;2022-12-18T02:43:13;101099.66;;;-1.29;100.00
55301;BME280;58302;51.446;-2.000;2022-12-18T02:45:53;101096.28;;;-1.15;100.00
55301;BME280;58302;51.446;-2.000;2022-12-18T02:48:24;101099.53;;;-0.96;100.00
55301;BME280;58302;51.446;-2.000;2022-12-18T02:56:13;101096.06;;;-1.05;100.00
55301;BME280;58302;51.446;-2.000;2022-12-18T02:59:05;101097.75;;;-1.04;100.00
55301;BME280;58302;51.446;-2.000;2022-12-18T03:04:34;101093.28;;;-0.81;100.00
55301;BME280;58302;51.446;-2.000;2022-12-18T03:07:09;101084.06;;;-0.78;100.00
55301;BME280;58302;51.446;-2.000;2022-12-18T03:09:43;101093.06;;;-0.71;100.00
55301;BME280;58302;51.446;-2.000;2022-12-18T03:12:15;101091.88;;;-0.68;100.00
55301;BME280;58302;51.446;-2.000;2022-12-18T03:15:25;101090.84;;;-0.67;100.00
55301;BME280;58302;51.446;-2.000;2022-12-18T03:18:01;101090.53;;;-0.64;100.00
55301;BME280;58302;51.446;-2.000;2022-12-18T03:20:31;101079.66;;;-0.63;100.00
55301;BME280;58302;51.446;-2.000;2022-12-18T03:23:04;101074.81;;;-0.59;100.00
55301;BME280;58302;51.446;-2.000;2022-12-18T03:25:32;101076.59;;;-0.51;100.00
55301;BME280;58302;51.446;-2.000;2022-12-18T03:28:02;101072.19;;;-0.44;100.00
55301;BME280;58302;51.446;-2.000;2022-12-18T03:30:31;101083.47;;;-0.34;100.00
55301;BME280;58302;51.446;-2.000;2022-12-18T03:33:13;101072.19;;;-0.21;100.00
55301;BME280;58302;51.446;-2.000;2022-12-18T03:35:43;101059.13;;;-0.16;100.00
55301;BME280;58302;51.446;-2.000;2022-12-18T03:38:10;101063.38;;;-0.07;100.00
55301;BME280;58302;51.446;-2.000;2022-12-18T03:46:46;101048.25;;;0.23;100.00
55301;BME280;58302;51.446;-2.000;2022-12-18T03:49:23;101047.69;;;0.28;100.00
55301;BME280;58302;51.446;-2.000;2022-12-18T03:52:04;101040.50;;;0.28;100.00
55301;BME280;58302;51.446;-2.000;2022-12-18T03:54:33;101036.63;;;0.31;100.00
55301;BME280;58302;51.446;-2.000;2022-12-18T03:57:07;101032.19;;;0.38;100.00
55301;BME280;58302;51.446;-2.000;2022-12-18T03:59:37;101022.72;;;0.35;100.00
55301;BME280;58302;51.446;-2.000;2022-12-18T04:02:05;101012.31;;;0.40;100.00
55301;BME280;58302;51.446;-2.000;2022-12-18T04:04:34;101006.00;;;0.48;100.00
55301;BME280;58302;51.446;-2.000;2022-12-18T04:07:01;101005.94;;;0.56;100.00
55301;BME280;58302;51.446;-2.000;2022-12-18T04:09:28;100998.19;;;0.61;100.00
55301;BME280;58302;51.446;-2.000;2022-12-18T04:11:55;100998.34;;;0.60;100.00
55301;BME280;58302;51.446;-2.000;2022-12-18T04:14:21;100991.41;;;0.65;100.00
55301;BME280;58302;51.446;-2.000;2022-12-18T04:16:47;100982.00;;;0.69;100.00
55301;BME280;58302;51.446;-2.000;2022-12-18T04:19:13;100981.00;;;0.70;100.00
55301;BME280;58302;51.446;-2.000;2022-12-18T04:21:39;100964.78;;;0.72;100.00
55301;BME280;58302;51.446;-2.000;2022-12-18T04:24:05;100963.69;;;0.66;100.00
55301;BME280;58302;51.446;-2.000;2022-12-18T04:26:31;100952.13;;;0.66;100.00
55301;BME280;58302;51.446;-2.000;2022-12-18T04:28:57;100954.72;;;0.59;100.00
55301;BME280;58302;51.446;-2.000;2022-12-18T04:31:23;100946.28;;;0.56;100.00
55301;BME280;58302;51.446;-2.000;2022-12-18T04:33:49;100941.28;;;0.52;100.00
55301;BME280;58302;51.446;-2.000;2022-12-18T04:36:15;100938.34;;;0.47;100.00
55301;BME280;58302;51.446;-2.000;2022-12-18T04:38:41;100932.25;;;0.53;100.00
55301;BME280;58302;51.446;-2.000;2022-12-18T04:41:07;100927.34;;;0.57;100.00
55301;BME280;58302;51.446;-2.000;2022-12-18T04:43:32;100922.63;;;0.59;100.00
55301;BME280;58302;51.446;-2.000;2022-12-18T04:46:05;100924.50;;;0.59;100.00
55301;BME280;58302;51.446;-2.000;2022-12-18T04:48:32;100919.69;;;0.54;100.00
55301;BME280;58302;51.446;-2.000;2022-12-18T04:50:58;100919.25;;;0.50;100.00
55301;BME280;58302;51.446;-2.000;2022-12-18T04:53:24;100926.72;;;0.55;100.00
55301;BME280;58302;51.446;-2.000;2022-12-18T04:55:50;100920.78;;;0.60;100.00
55301;BME280;58302;51.446;-2.000;2022-12-18T04:58:16;100909.81;;;0.55;100.00
55301;BME280;58302;51.446;-2.000;2022-12-18T05:00:42;100894.63;;;0.55;100.00
55301;BME280;58302;51.446;-2.000;2022-12-18T05:03:08;100890.28;;;0.54;100.00
55301;BME280;58302;51.446;-2.000;2022-12-18T05:05:35;100902.41;;;0.50;100.00
55301;BME280;58302;51.446;-2.000;2022-12-18T05:08:01;100897.59;;;0.45;100.00
55301;BME280;58302;51.446;-2.000;2022-12-18T05:10:27;100882.47;;;0.38;100.00
55301;BME280;58302;51.446;-2.000;2022-12-18T05:12:53;100885.09;;;0.31;100.00
55301;BME280;58302;51.446;-2.000;2022-12-18T05:15:32;100893.09;;;0.31;100.00
55301;BME280;58302;51.446;-2.000;2022-12-18T05:17:58;100893.31;;;0.30;100.00
55301;BME280;58302;51.446;-2.000;2022-12-18T05:20:25;100882.16;;;0.26;100.00
55301;BME280;58302;51.446;-2.000;2022-12-18T05:22:52;100869.13;;;0.38;100.00
55301;BME280;58302;51.446;-2.000;2022-12-18T05:25:19;100858.69;;;0.43;100.00
55301;BME280;58302;51.446;-2.000;2022-12-18T05:27:45;100859.34;;;0.45;100.00
55301;BME280;58302;51.446;-2.000;2022-12-18T05:30:12;100855.72;;;0.52;100.00
55301;BME280;58302;51.446;-2.000;2022-12-18T05:32:38;100844.66;;;0.56;100.00
55301;BME280;58302;51.446;-2.000;2022-12-18T05:35:05;100852.47;;;0.57;100.00
55301;BME280;58302;51.446;-2.000;2022-12-18T05:37:32;100838.09;;;0.58;100.00
55301;BME280;58302;51.446;-2.000;2022-12-18T05:39:58;100830.63;;;0.53;100.00
55301;BME280;58302;51.446;-2.000;2022-12-18T05:42:23;100824.09;;;0.56;100.00
55301;BME280;58302;51.446;-2.000;2022-12-18T05:44:51;100820.19;;;0.59;100.00
55301;BME280;58302;51.446;-2.000;2022-12-18T05:47:17;100812.56;;;0.56;100.00
55301;BME280;58302;51.446;-2.000;2022-12-18T05:49:43;100800.38;;;0.53;100.00
55301;BME280;58302;51.446;-2.000;2022-12-18T05:52:08;100807.00;;;0.57;100.00
55301;BME280;58302;51.446;-2.000;2022-12-18T05:54:34;100791.22;;;0.62;100.00
55301;BME280;58302;51.446;-2.000;2022-12-18T05:57:00;100785.63;;;0.78;100.00
55301;BME280;58302;51.446;-2.000;2022-12-18T05:59:26;100777.38;;;0.80;100.00
55301;BME280;58302;51.446;-2.000;2022-12-18T06:01:52;100779.84;;;0.82;100.00
55301;BME280;58302;51.446;-2.000;2022-12-18T06:04:18;100773.69;;;0.81;100.00
55301;BME280;58302;51.446;-2.000;2022-12-18T06:06:44;100777.19;;;0.82;100.00
55301;BME280;58302;51.446;-2.000;2022-12-18T06:09:10;100773.50;;;0.83;100.00
55301;BME280;58302;51.446;-2.000;2022-12-18T06:11:37;100772.53;;;0.90;100.00
55301;BME280;58302;51.446;-2.000;2022-12-18T06:14:04;100780.47;;;1.05;100.00
55301;BME280;58302;51.446;-2.000;2022-12-18T06:16:31;100765.63;;;1.02;100.00
55301;BME280;58302;51.446;-2.000;2022-12-18T06:18:58;100769.81;;;1.12;100.00
55301;BME280;58302;51.446;-2.000;2022-12-18T06:21:24;100781.38;;;1.19;100.00
55301;BME280;58302;51.446;-2.000;2022-12-18T06:23:50;100779.41;;;1.27;100.00
55301;BME280;58302;51.446;-2.000;2022-12-18T06:26:16;100788.03;;;1.29;100.00
55301;BME280;58302;51.446;-2.000;2022-12-18T06:28:42;100763.72;;;1.24;100.00
55301;BME280;58302;51.446;-2.000;2022-12-18T06:31:08;100760.00;;;1.25;100.00
55301;BME280;58302;51.446;-2.000;2022-12-18T06:33:35;100771.13;;;1.22;100.00
55301;BME280;58302;51.446;-2.000;2022-12-18T06:36:10;100760.41;;;1.22;100.00
55301;BME280;58302;51.446;-2.000;2022-12-18T06:38:38;100748.88;;;1.22;100.00
55301;BME280;58302;51.446;-2.000;2022-12-18T06:41:11;100748.69;;;1.23;100.00
55301;BME280;58302;51.446;-2.000;2022-12-18T06:43:37;100747.25;;;1.27;100.00
55301;BME280;58302;51.446;-2.000;2022-12-18T06:46:04;100751.78;;;1.27;100.00
55301;BME280;58302;51.446;-2.000;2022-12-18T06:48:30;100750.34;;;1.31;100.00
55301;BME280;58302;51.446;-2.000;2022-12-18T06:50:56;100752.22;;;1.30;100.00
55301;BME280;58302;51.446;-2.000;2022-12-18T06:53:22;100752.22;;;1.30;100.00
55301;BME280;58302;51.446;-2.000;2022-12-18T06:55:48;100760.25;;;1.30;100.00
55301;BME280;58302;51.446;-2.000;2022-12-18T06:58:15;100759.63;;;1.28;100.00
55301;BME280;58302;51.446;-2.000;2022-12-18T07:00:41;100761.72;;;1.33;100.00
55301;BME280;58302;51.446;-2.000;2022-12-18T07:03:07;100776.16;;;1.39;100.00
55301;BME280;58302;51.446;-2.000;2022-12-18T07:05:33;100772.47;;;1.40;100.00
55301;BME280;58302;51.446;-2.000;2022-12-18T07:07:59;100759.94;;;1.47;100.00
55301;BME280;58302;51.446;-2.000;2022-12-18T07:10:25;100759.72;;;1.48;100.00
55301;BME280;58302;51.446;-2.000;2022-12-18T07:12:51;100758.47;;;1.44;100.00
55301;BME280;58302;51.446;-2.000;2022-12-18T07:15:17;100769.78;;;1.40;100.00
55301;BME280;58302;51.446;-2.000;2022-12-18T07:17:43;100763.16;;;1.36;100.00
55301;BME280;58302;51.446;-2.000;2022-12-18T07:20:09;100770.94;;;1.30;100.00
55301;BME280;58302;51.446;-2.000;2022-12-18T07:22:35;100789.31;;;1.34;100.00
55301;BME280;58302;51.446;-2.000;2022-12-18T07:25:01;100797.13;;;1.35;100.00
55301;BME280;58302;51.446;-2.000;2022-12-18T07:27:27;100780.25;;;1.35;100.00
55301;BME280;58302;51.446;-2.000;2022-12-18T07:29:53;100776.53;;;1.36;100.00
55301;BME280;58302;51.446;-2.000;2022-12-18T07:32:20;100783.50;;;1.30;100.00
55301;BME280;58302;51.446;-2.000;2022-12-18T07:34:46;100782.25;;;1.26;100.00
55301;BME280;58302;51.446;-2.000;2022-12-18T07:37:12;100774.22;;;1.26;100.00
55301;BME280;58302;51.446;-2.000;2022-12-18T07:39:38;100767.84;;;1.27;100.00
55301;BME280;58302;51.446;-2.000;2022-12-18T07:42:04;100766.00;;;1.27;100.00
55301;BME280;58302;51.446;-2.000;2022-12-18T07:45:03;100768.69;;;1.27;100.00
55301;BME280;58302;51.446;-2.000;2022-12-18T07:47:29;100773.38;;;1.25;100.00
55301;BME280;58302;51.446;-2.000;2022-12-18T07:49:56;100776.06;;;1.25;100.00
55301;BME280;58302;51.446;-2.000;2022-12-18T07:52:22;100774.63;;;1.23;100.00
55301;BME280;58302;51.446;-2.000;2022-12-18T07:54:48;100776.47;;;1.22;100.00
55301;BME280;58302;51.446;-2.000;2022-12-18T07:57:17;100793.94;;;1.18;100.00
55301;BME280;58302;51.446;-2.000;2022-12-18T07:59:43;100783.84;;;1.20;100.00
55301;BME280;58302;51.446;-2.000;2022-12-18T08:02:09;100779.41;;;1.27;100.00
55301;BME280;58302;51.446;-2.000;2022-12-18T08:04:35;100775.91;;;1.27;100.00
55301;BME280;58302;51.446;-2.000;2022-12-18T08:07:01;100776.31;;;1.30;100.00
55301;BME280;58302;51.446;-2.000;2022-12-18T08:09:27;100782.34;;;1.39;100.00
55301;BME280;58302;51.446;-2.000;2022-12-18T08:11:53;100779.47;;;1.41;100.00
55301;BME280;58302;51.446;-2.000;2022-12-18T08:14:19;100784.19;;;1.39;100.00
55301;BME280;58302;51.446;-2.000;2022-12-18T08:16:45;100776.97;;;1.33;100.00
55301;BME280;58302;51.446;-2.000;2022-12-18T08:19:11;100786.22;;;1.37;100.00
55301;BME280;58302;51.446;-2.000;2022-12-18T08:21:37;100787.13;;;1.44;100.00
55301;BME280;58302;51.446;-2.000;2022-12-18T08:24:03;100796.16;;;1.43;100.00
55301;BME280;58302;51.446;-2.000;2022-12-18T08:26:30;100795.09;;;1.37;100.00
55301;BME280;58302;51.446;-2.000;2022-12-18T08:28:59;100785.59;;;1.35;100.00
55301;BME280;58302;51.446;-2.000;2022-12-18T08:31:27;100785.16;;;1.31;100.00
55301;BME280;58302;51.446;-2.000;2022-12-18T08:33:53;100792.78;;;1.27;100.00
55301;BME280;58302;51.446;-2.000;2022-12-18T08:36:20;100805.75;;;1.30;100.00
55301;BME280;58302;51.446;-2.000;2022-12-18T08:38:46;100799.19;;;1.33;100.00
55301;BME280;58302;51.446;-2.000;2022-12-18T08:41:14;100792.81;;;1.34;100.00
55301;BME280;58302;51.446;-2.000;2022-12-18T08:43:41;100785.00;;;1.33;100.00
55301;BME280;58302;51.446;-2.000;2022-12-18T08:46:27;100788.66;;;1.31;100.00
55301;BME280;58302;51.446;-2.000;2022-12-18T08:48:56;100781.28;;;1.34;100.00
55301;BME280;58302;51.446;-2.000;2022-12-18T08:51:22;100779.88;;;1.38;100.00
55301;BME280;58302;51.446;-2.000;2022-12-18T08:53:48;100784.19;;;1.39;100.00
55301;BME280;58302;51.446;-2.000;2022-12-18T08:56:15;100779.63;;;1.33;100.00
55301;BME280;58302;51.446;-2.000;2022-12-18T08:58:41;100776.06;;;1.25;100.00
55301;BME280;58302;51.446;-2.000;2022-12-18T09:01:10;100770.47;;;1.20;100.00
55301;BME280;58302;51.446;-2.000;2022-12-18T09:03:38;100776.00;;;1.12;100.00
55301;BME280;58302;51.446;-2.000;2022-12-18T09:06:04;100766.69;;;1.08;100.00
55301;BME280;58302;51.446;-2.000;2022-12-18T09:08:31;100757.22;;;1.05;100.00
55301;BME280;58302;51.446;-2.000;2022-12-18T09:10:57;100752.25;;;1.02;100.00
55301;BME280;58302;51.446;-2.000;2022-12-18T09:13:23;100737.22;;;1.01;100.00
55301;BME280;58302;51.446;-2.000;2022-12-18T09:15:52;100718.09;;;1.04;100.00
55301;BME280;58302;51.446;-2.000;2022-12-18T09:18:20;100716.25;;;1.05;100.00
55301;BME280;58302;51.446;-2.000;2022-12-18T09:20:46;100709.66;;;1.08;100.00
55301;BME280;58302;51.446;-2.000;2022-12-18T09:23:13;100716.91;;;1.14;100.00
55301;BME280;58302;51.446;-2.000;2022-12-18T09:25:39;100724.72;;;1.15;100.00
55301;BME280;58302;51.446;-2.000;2022-12-18T09:28:11;100728.06;;;1.17;100.00
55301;BME280;58302;51.446;-2.000;2022-12-18T09:30:42;100724.97;;;1.20;100.00
55301;BME280;58302;51.446;-2.000;2022-12-18T09:33:10;100701.09;;;1.25;100.00
55301;BME280;58302;51.446;-2.000;2022-12-18T09:35:36;100716.16;;;1.26;100.00
55301;BME280;58302;51.446;-2.000;2022-12-18T09:38:02;100723.78;;;1.29;100.00
55301;BME280;58302;51.446;-2.000;2022-12-18T09:40:35;100711.66;;;1.34;100.00
55301;BME280;58302;51.446;-2.000;2022-12-18T09:43:04;100713.53;;;1.33;100.00
55301;BME280;58302;51.446;-2.000;2022-12-18T09:45:58;100702.22;;;1.38;100.00
55301;BME280;58302;51.446;-2.000;2022-12-18T09:48:29;100704.91;;;1.44;100.00
55301;BME280;58302;51.446;-2.000;2022-12-18T09:51:00;100709.88;;;1.47;100.00
55301;BME280;58302;51.446;-2.000;2022-12-18T09:53:31;100697.53;;;1.53;100.00
55301;BME280;58302;51.446;-2.000;2022-12-18T09:56:01;100700.22;;;1.53;100.00
55301;BME280;58302;51.446;-2.000;2022-12-18T09:58:36;100689.31;;;1.54;100.00
55301;BME280;58302;51.446;-2.000;2022-12-18T10:01:16;100699.41;;;1.59;100.00
55301;BME280;58302;51.446;-2.000;2022-12-18T10:03:44;100709.72;;;1.62;100.00
55301;BME280;58302;51.446;-2.000;2022-12-18T10:08:46;100702.72;;;1.61;100.00
55301;BME280;58302;51.446;-2.000;2022-12-18T10:13:57;100698.63;;;1.65;100.00
55301;BME280;58302;51.446;-2.000;2022-12-18T10:19:20;100694.09;;;1.66;100.00
55301;BME280;58302;51.446;-2.000;2022-12-18T10:27:11;100666.88;;;1.69;100.00
55301;BME280;58302;51.446;-2.000;2022-12-18T10:29:38;100661.97;;;1.72;100.00
55301;BME280;58302;51.446;-2.000;2022-12-18T10:32:04;100653.09;;;1.72;100.00
55301;BME280;58302;51.446;-2.000;2022-12-18T10:34:30;100654.16;;;1.77;100.00
55301;BME280;58302;51.446;-2.000;2022-12-18T10:36:56;100637.25;;;1.83;100.00
55301;BME280;58302;51.446;-2.000;2022-12-18T10:39:24;100633.16;;;1.88;100.00
55301;BME280;58302;51.446;-2.000;2022-12-18T10:41:51;100615.00;;;1.90;100.00
55301;BME280;58302;51.446;-2.000;2022-12-18T10:44:30;100628.41;;;1.90;100.00
55301;BME280;58302;51.446;-2.000;2022-12-18T10:47:04;100608.22;;;1.94;100.00
55301;BME280;58302;51.446;-2.000;2022-12-18T10:49:32;100600.16;;;1.94;100.00
55301;BME280;58302;51.446;-2.000;2022-12-18T10:52:14;100592.94;;;2.01;100.00
55301;BME280;58302;51.446;-2.000;2022-12-18T10:54:46;100582.22;;;2.01;100.00
55301;BME280;58302;51.446;-2.000;2022-12-18T10:57:15;100569.88;;;2.00;100.00
55301;BME280;58302;51.446;-2.000;2022-12-18T10:59:56;100551.31;;;2.05;100.00
55301;BME280;58302;51.446;-2.000;2022-12-18T11:04:54;100541.19;;;2.07;100.00
55301;BME280;58302;51.446;-2.000;2022-12-18T11:07:20;100531.50;;;2.06;100.00
55301;BME280;58302;51.446;-2.000;2022-12-18T11:09:59;100526.75;;;2.08;100.00
55301;BME280;58302;51.446;-2.000;2022-12-18T11:12:27;100514.59;;;2.12;100.00
55301;BME280;58302;51.446;-2.000;2022-12-18T11:14:57;100506.75;;;2.17;100.00
55301;BME280;58302;51.446;-2.000;2022-12-18T11:17:33;100497.44;;;2.20;100.00
55301;BME280;58302;51.446;-2.000;2022-12-18T11:20:40;100483.84;;;2.21;100.00
55301;BME280;58302;51.446;-2.000;2022-12-18T11:23:12;100487.78;;;2.25;100.00
55301;BME280;58302;51.446;-2.000;2022-12-18T11:25:38;100478.25;;;2.29;100.00
55301;BME280;58302;51.446;-2.000;2022-12-18T11:28:28;100487.75;;;2.32;100.00
55301;BME280;58302;51.446;-2.000;2022-12-18T11:31:18;100471.66;;;2.32;100.00
55301;BME280;58302;51.446;-2.000;2022-12-18T11:33:59;100474.53;;;2.37;100.00
55301;BME280;58302;51.446;-2.000;2022-12-18T11:36:30;100463.59;;;2.38;100.00
55301;BME280;58302;51.446;-2.000;2022-12-18T11:38:59;100448.09;;;2.41;100.00
55301;BME280;58302;51.446;-2.000;2022-12-18T11:41:32;100453.66;;;2.46;100.00
55301;BME280;58302;51.446;-2.000;2022-12-18T11:44:26;100440.88;;;2.48;100.00
55301;BME280;58302;51.446;-2.000;2022-12-18T11:49:55;100422.88;;;2.55;100.00
55301;BME280;58302;51.446;-2.000;2022-12-18T11:52:31;100409.88;;;2.58;100.00
55301;BME280;58302;51.446;-2.000;2022-12-18T11:55:01;100408.78;;;2.66;100.00
55301;BME280;58302;51.446;-2.000;2022-12-18T11:57:42;100395.97;;;2.68;100.00
55301;BME280;58302;51.446;-2.000;2022-12-18T12:00:20;100409.16;;;2.76;100.00
55301;BME280;58302;51.446;-2.000;2022-12-18T12:08:43;100404.16;;;2.80;100.00
55301;BME280;58302;51.446;-2.000;2022-12-18T12:14:34;100382.56;;;2.75;100.00
55301;BME280;58302;51.446;-2.000;2022-12-18T12:16:53;100379.41;;;2.78;100.00
55301;BME280;58302;51.446;-2.000;2022-12-18T12:24:49;100356.31;;;2.77;100.00
55301;BME280;58302;51.446;-2.000;2022-12-18T12:27:47;100358.19;;;2.76;100.00
55301;BME280;58302;51.446;-2.000;2022-12-18T12:30:20;100338.75;;;2.74;100.00
55301;BME280;58302;51.446;-2.000;2022-12-18T12:38:57;100304.63;;;2.88;100.00
55301;BME280;58302;51.446;-2.000;2022-12-18T12:41:26;100301.28;;;2.93;100.00
55301;BME280;58302;51.446;-2.000;2022-12-18T12:44:16;100289.84;;;3.04;100.00
55301;BME280;58302;51.446;-2.000;2022-12-18T12:46:44;100283.00;;;3.08;100.00
55301;BME280;58302;51.446;-2.000;2022-12-18T12:49:15;100279.44;;;3.14;100.00
55301;BME280;58302;51.446;-2.000;2022-12-18T12:51:45;100271.97;;;3.16;100.00
55301;BME280;58302;51.446;-2.000;2022-12-18T12:54:19;100273.75;;;3.22;100.00
55301;BME280;58302;51.446;-2.000;2022-12-18T12:59:19;100242.06;;;3.31;100.00
55301;BME280;58302;51.446;-2.000;2022-12-18T13:04:58;100248.78;;;3.40;100.00
55301;BME280;58302;51.446;-2.000;2022-12-18T13:20:40;100207.06;;;3.56;100.00
55301;BME280;58302;51.446;-2.000;2022-12-18T13:23:25;100211.34;;;3.63;100.00
55301;BME280;58302;51.446;-2.000;2022-12-18T13:25:52;100204.81;;;3.71;100.00
55301;BME280;58302;51.446;-2.000;2022-12-18T13:34:21;100178.16;;;4.00;100.00
55301;BME280;58302;51.446;-2.000;2022-12-18T13:36:47;100180.66;;;4.01;100.00
55301;BME280;58302;51.446;-2.000;2022-12-18T13:41:47;100173.19;;;4.15;100.00
55301;BME280;58302;51.446;-2.000;2022-12-18T13:44:33;100184.66;;;4.22;100.00
55301;BME280;58302;51.446;-2.000;2022-12-18T13:47:03;100162.69;;;4.25;100.00
55301;BME280;58302;51.446;-2.000;2022-12-18T13:51:58;100150.56;;;4.34;100.00
55301;BME280;58302;51.446;-2.000;2022-12-18T13:54:37;100146.34;;;4.38;100.00
55301;BME280;58302;51.446;-2.000;2022-12-18T13:57:22;100132.06;;;4.38;100.00
55301;BME280;58302;51.446;-2.000;2022-12-18T13:59:50;100111.03;;;4.46;100.00
55301;BME280;58302;51.446;-2.000;2022-12-18T14:02:21;100123.53;;;4.53;100.00
55301;BME280;58302;51.446;-2.000;2022-12-18T14:04:48;100117.69;;;4.56;100.00
55301;BME280;58302;51.446;-2.000;2022-12-18T14:07:17;100105.88;;;4.57;100.00
55301;BME280;58302;51.446;-2.000;2022-12-18T14:09:47;100088.78;;;4.63;100.00
55301;BME280;58302;51.446;-2.000;2022-12-18T14:12:33;100092.31;;;4.63;100.00
55301;BME280;58302;51.446;-2.000;2022-12-18T14:18:23;100087.72;;;4.75;100.00
55301;BME280;58302;51.446;-2.000;2022-12-18T14:20:51;100073.31;;;4.82;100.00
55301;BME280;58302;51.446;-2.000;2022-12-18T14:23:37;100081.97;;;4.95;100.00
55301;BME280;58302;51.446;-2.000;2022-12-18T14:26:20;100063.69;;;4.97;100.00
55301;BME280;58302;51.446;-2.000;2022-12-18T14:28:47;100075.13;;;5.05;100.00
55301;BME280;58302;51.446;-2.000;2022-12-18T14:31:18;100071.75;;;5.09;100.00